Time;durP1;ratioP1;P1;durP2;ratioP2;P2;SDS_P1;SDS_P2;PMS_P1;PMS_P2;Temp;Humidity;BMP_temperature;BMP_pressure;BME280_temperature;BME280_humidity;BME280_pressure;Samples;Min_cycle;Max_cycle;Signal;HPM_P1;HPM_P2
2023/05/05 00:01:33;;;;;;;10.63;4.93;;;;;;;;;;4949245;28;20517;-82
2023/05/05 00:04:00;;;;;;;11.60;5.20;;;;;;;;;;4934058;28;20066;-85
2023/05/05 00:06:30;;;;;;;8.75;4.40;;;;;;;;;;4934250;28;20055;-84
2023/05/05 00:08:56;;;;;;;17.10;5.00;;;;;;;;;;4919743;28;20074;-83
2023/05/05 00:11:24;;;;;;;10.82;5.00;;;;;;;;;;4920242;28;20618;-85
2023/05/05 00:13:51;;;;;;;8.40;4.65;;;;;;;;;;4940592;28;20052;-83
2023/05/05 00:16:18;;;;;;;10.40;4.57;;;;;;;;;;4944668;28;20052;-83
2023/05/05 00:18:45;;;;;;;9.02;4.68;;;;;;;;;;4944685;28;20075;-84
2023/05/05 00:21:11;;;;;;;9.30;4.78;;;;;;;;;;4939345;29;20048;-82
2023/05/05 00:23:39;;;;;;;9.88;4.80;;;;;;;;;;4934128;28;20520;-85
2023/05/05 00:26:05;;;;;;;11.02;5.00;;;;;;;;;;4949436;28;20060;-83
2023/05/05 00:28:32;;;;;;;10.93;4.82;;;;;;;;;;4940855;28;20048;-84
2023/05/05 00:31:01;;;;;;;9.35;4.15;;;;;;;;;;4970342;28;20074;-84
2023/05/05 00:33:28;;;;;;;9.43;4.07;;;;;;;;;;4956891;28;20059;-85
2023/05/05 00:35:55;;;;;;;12.05;4.53;;;;;;;;;;4971441;28;20035;-85
2023/05/05 00:38:25;;;;;;;10.00;4.32;;;;;;;;;;4972998;28;20063;-84
2023/05/05 00:40:52;;;;;;;9.05;4.63;;;;;;;;;;4967271;28;20047;-85
2023/05/05 00:43:19;;;;;;;12.15;4.65;;;;;;;;;;4966364;28;20043;-83
2023/05/05 00:45:50;;;;;;;9.13;5.00;;;;;;;;;;4949313;29;20069;-83
2023/05/05 00:48:18;;;;;;;9.70;4.70;;;;;;;;;;4966928;28;20047;-84
2023/05/05 00:50:44;;;;;;;8.60;4.30;;;;;;;;;;4949217;29;20039;-84
2023/05/05 00:53:12;;;;;;;11.15;5.00;;;;;;;;;;4963730;28;20085;-83
2023/05/05 00:55:40;;;;;;;10.98;5.03;;;;;;;;;;4964963;28;20055;-83
2023/05/05 00:58:10;;;;;;;8.27;4.25;;;;;;;;;;4966688;28;20071;-86
2023/05/05 01:00:39;;;;;;;12.18;4.82;;;;;;;;;;4956907;28;20149;-83
2023/05/05 01:03:06;;;;;;;12.15;4.93;;;;;;;;;;4959720;28;20051;-84
2023/05/05 01:05:40;;;;;;;12.45;4.80;;;;;;;;;;4959969;28;20075;-82
2023/05/05 01:08:20;;;;;;;17.83;5.60;;;;;;;;;;4960995;28;20058;-81
2023/05/05 01:11:00;;;;;;;15.57;4.78;;;;;;;;;;4961671;28;20054;-81
2023/05/05 01:13:38;;;;;;;11.68;5.30;;;;;;;;;;4950163;28;20055;-85
2023/05/05 01:16:19;;;;;;;10.75;5.32;;;;;;;;;;4970781;28;20066;-84
2023/05/05 01:19:05;;;;;;;14.13;5.10;;;;;;;;;;4965585;28;20062;-83
2023/05/05 01:21:40;;;;;;;10.55;5.15;;;;;;;;;;4954957;28;20094;-83
2023/05/05 01:24:16;;;;;;;10.25;4.60;;;;;;;;;;4959395;28;20047;-84
2023/05/05 01:26:46;;;;;;;8.98;4.72;;;;;;;;;;4967697;28;20051;-85
2023/05/05 01:29:21;;;;;;;8.65;4.68;;;;;;;;;;4963655;28;20055;-85
2023/05/05 01:31:51;;;;;;;9.25;4.65;;;;;;;;;;4932396;29;20048;-85
2023/05/05 01:34:26;;;;;;;9.57;4.88;;;;;;;;;;4946983;29;20047;-83
2023/05/05 01:37:03;;;;;;;11.23;4.72;;;;;;;;;;4930181;29;20051;-85
2023/05/05 01:39:33;;;;;;;9.15;4.03;;;;;;;;;;4945133;29;20044;-85
2023/05/05 01:42:03;;;;;;;8.30;4.25;;;;;;;;;;4944014;29;20055;-84
2023/05/05 01:44:33;;;;;;;10.10;4.72;;;;;;;;;;4944481;29;20058;-84
2023/05/05 01:47:01;;;;;;;14.10;5.05;;;;;;;;;;4944909;29;20062;-84
2023/05/05 01:49:29;;;;;;;10.80;4.30;;;;;;;;;;4945491;29;20075;-82
2023/05/05 01:51:57;;;;;;;9.45;4.65;;;;;;;;;;4928408;29;20393;-83
2023/05/05 01:54:27;;;;;;;9.68;4.45;;;;;;;;;;4940838;28;20052;-84
2023/05/05 01:56:56;;;;;;;10.73;4.65;;;;;;;;;;4935604;29;20063;-83
2023/05/05 01:59:24;;;;;;;10.75;4.50;;;;;;;;;;4947477;29;20099;-84
2023/05/05 02:01:51;;;;;;;9.63;4.53;;;;;;;;;;4952479;29;20044;-82
2023/05/05 02:04:21;;;;;;;9.55;4.78;;;;;;;;;;4947054;29;20055;-83
2023/05/05 02:06:50;;;;;;;9.52;4.32;;;;;;;;;;4928811;29;20048;-86
2023/05/05 02:09:17;;;;;;;9.18;4.60;;;;;;;;;;4942389;28;20055;-85
2023/05/05 02:11:44;;;;;;;12.13;4.40;;;;;;;;;;4939386;28;20119;-84
2023/05/05 02:14:11;;;;;;;11.27;4.65;;;;;;;;;;4978901;28;20055;-83
2023/05/05 02:16:41;;;;;;;8.38;4.32;;;;;;;;;;4970026;28;20074;-82
2023/05/05 02:19:07;;;;;;;13.15;4.53;;;;;;;;;;4951778;28;20085;-84
2023/05/05 02:21:34;;;;;;;7.45;4.35;;;;;;;;;;4960362;28;20464;-81
2023/05/05 02:24:01;;;;;;;9.85;4.45;;;;;;;;;;4949522;28;20059;-81
2023/05/05 02:26:29;;;;;;;11.50;4.50;;;;;;;;;;4959506;28;20040;-83
2023/05/05 02:29:02;;;;;;;7.80;4.72;;;;;;;;;;4941827;29;20075;-83
2023/05/05 02:31:31;;;;;;;12.32;4.90;;;;;;;;;;4944326;29;20079;-83
2023/05/05 02:34:00;;;;;;;7.88;4.60;;;;;;;;;;4962399;29;20062;-81
2023/05/05 02:36:32;;;;;;;10.82;4.90;;;;;;;;;;4961065;28;20082;-84
2023/05/05 02:39:06;;;;;;;8.98;4.70;;;;;;;;;;4961889;28;20066;-84
2023/05/05 02:41:37;;;;;;;14.50;5.28;;;;;;;;;;4956190;28;20047;-83
2023/05/05 02:44:11;;;;;;;8.32;4.80;;;;;;;;;;4955357;28;20043;-82
2023/05/05 02:46:38;;;;;;;12.02;4.95;;;;;;;;;;4940495;28;20168;-83
2023/05/05 02:49:05;;;;;;;9.32;4.60;;;;;;;;;;4956742;28;20078;-83
2023/05/05 02:51:40;;;;;;;8.90;5.00;;;;;;;;;;4976632;28;20119;-83
2023/05/05 02:54:16;;;;;;;10.63;5.30;;;;;;;;;;4956154;28;20102;-85
2023/05/05 02:56:46;;;;;;;7.78;4.47;;;;;;;;;;4955548;28;20087;-86
2023/05/05 02:59:31;;;;;;;12.05;4.88;;;;;;;;;;4941389;28;20093;-82
2023/05/05 03:02:14;;;;;;;8.35;4.47;;;;;;;;;;4941696;28;20067;-81
2023/05/05 03:04:47;;;;;;;9.27;4.80;;;;;;;;;;4964272;28;20115;-82
2023/05/05 03:07:17;;;;;;;10.15;4.68;;;;;;;;;;4944546;28;20086;-83
2023/05/05 03:09:54;;;;;;;14.90;4.95;;;;;;;;;;4961546;28;20043;-84
2023/05/05 03:12:26;;;;;;;11.70;5.30;;;;;;;;;;4976751;28;20469;-84
2023/05/05 03:15:03;;;;;;;15.88;5.10;;;;;;;;;;4963081;28;20130;-83
2023/05/05 03:17:30;;;;;;;9.65;5.28;;;;;;;;;;4971188;28;20102;-83
2023/05/05 03:19:58;;;;;;;11.23;5.35;;;;;;;;;;4949556;28;20059;-83
2023/05/05 03:22:34;;;;;;;11.93;4.75;;;;;;;;;;4968994;28;20130;-84
2023/05/05 03:25:01;;;;;;;9.77;5.20;;;;;;;;;;4942877;28;20043;-83
2023/05/05 03:27:28;;;;;;;11.82;5.18;;;;;;;;;;4966471;28;20039;-82
2023/05/05 03:29:55;;;;;;;8.73;4.80;;;;;;;;;;4938839;29;20130;-82
2023/05/05 03:32:26;;;;;;;8.38;4.13;;;;;;;;;;4962773;28;20063;-84
2023/05/05 03:34:53;;;;;;;7.63;4.47;;;;;;;;;;4959066;28;20050;-83
2023/05/05 03:37:25;;;;;;;7.72;4.60;;;;;;;;;;4964484;28;20043;-82
2023/05/05 03:39:51;;;;;;;9.23;4.60;;;;;;;;;;4956383;28;20058;-84
2023/05/05 03:42:19;;;;;;;10.02;4.10;;;;;;;;;;4937819;29;20099;-84
2023/05/05 03:44:46;;;;;;;9.75;4.57;;;;;;;;;;4935591;29;20051;-81
2023/05/05 03:47:13;;;;;;;11.63;4.57;;;;;;;;;;4940327;29;20075;-82
2023/05/05 03:49:39;;;;;;;9.23;3.90;;;;;;;;;;4959970;28;20075;-82
2023/05/05 03:52:08;;;;;;;9.52;4.43;;;;;;;;;;4949912;28;20093;-82
2023/05/05 03:54:38;;;;;;;9.40;4.53;;;;;;;;;;4955439;28;20060;-83
2023/05/05 03:57:06;;;;;;;9.73;4.30;;;;;;;;;;4960532;28;20047;-84
2023/05/05 03:59:32;;;;;;;7.85;4.43;;;;;;;;;;4955048;28;20047;-84
2023/05/05 04:02:05;;;;;;;11.77;4.38;;;;;;;;;;4955789;28;25050;-82
2023/05/05 04:04:34;;;;;;;11.38;4.05;;;;;;;;;;4961033;29;20058;-81
2023/05/05 04:07:01;;;;;;;8.60;4.10;;;;;;;;;;4960494;28;20039;-83
2023/05/05 04:09:28;;;;;;;8.15;4.53;;;;;;;;;;4958381;28;20058;-83
2023/05/05 04:11:54;;;;;;;12.93;4.57;;;;;;;;;;4963410;28;20059;-82
2023/05/05 04:14:21;;;;;;;8.18;4.30;;;;;;;;;;4961272;28;20043;-84
2023/05/05 04:16:48;;;;;;;12.70;4.30;;;;;;;;;;4956766;28;20551;-84
2023/05/05 04:19:16;;;;;;;8.50;4.65;;;;;;;;;;4957747;28;20407;-82
2023/05/05 04:21:43;;;;;;;10.90;4.35;;;;;;;;;;4956797;28;20043;-83
2023/05/05 04:24:10;;;;;;;10.48;4.57;;;;;;;;;;4956336;28;20066;-83
2023/05/05 04:26:37;;;;;;;11.88;5.47;;;;;;;;;;4943520;29;20035;-83
2023/05/05 04:29:03;;;;;;;10.55;4.70;;;;;;;;;;4968310;28;20460;-82
2023/05/05 04:31:30;;;;;;;10.73;4.90;;;;;;;;;;4935219;29;20075;-84
2023/05/05 04:33:57;;;;;;;11.32;4.75;;;;;;;;;;4920109;29;20467;-82
2023/05/05 04:36:24;;;;;;;11.63;5.53;;;;;;;;;;4919584;29;20064;-84
2023/05/05 04:38:53;;;;;;;8.85;4.55;;;;;;;;;;4936448;29;20056;-82
2023/05/05 04:41:20;;;;;;;11.18;4.90;;;;;;;;;;4921348;28;20119;-83
2023/05/05 04:43:56;;;;;;;10.30;5.03;;;;;;;;;;4932545;29;20055;-83
2023/05/05 04:46:26;;;;;;;9.02;4.72;;;;;;;;;;4939216;29;20048;-84
2023/05/05 04:48:53;;;;;;;14.07;4.97;;;;;;;;;;4932790;29;20063;-83
2023/05/05 04:51:20;;;;;;;10.82;4.90;;;;;;;;;;4950342;29;20051;-82
2023/05/05 04:53:46;;;;;;;13.18;4.90;;;;;;;;;;4953550;29;20054;-85
2023/05/05 04:56:15;;;;;;;15.07;5.03;;;;;;;;;;4938903;28;20036;-82
2023/05/05 04:58:42;;;;;;;13.18;5.38;;;;;;;;;;4952299;29;20051;-84
2023/05/05 05:01:08;;;;;;;9.38;4.88;;;;;;;;;;4961287;28;20097;-84
2023/05/05 05:03:37;;;;;;;7.55;4.60;;;;;;;;;;4943996;28;20043;-73
2023/05/05 05:06:04;;;;;;;9.80;4.22;;;;;;;;;;4951400;28;20139;-82
2023/05/05 05:08:30;;;;;;;10.63;4.70;;;;;;;;;;4945372;28;20051;-84
2023/05/05 05:10:58;;;;;;;12.30;5.38;;;;;;;;;;4929144;28;20048;-84
2023/05/05 05:13:25;;;;;;;14.40;5.25;;;;;;;;;;4926738;28;20075;-84
2023/05/05 05:15:52;;;;;;;12.35;5.78;;;;;;;;;;4925875;28;20131;-79
2023/05/05 05:18:18;;;;;;;13.25;5.60;;;;;;;;;;4944589;28;20048;-83
2023/05/05 05:20:46;;;;;;;13.55;6.53;;;;;;;;;;4936243;29;20051;-83
2023/05/05 05:23:23;;;;;;;13.48;6.43;;;;;;;;;;4952095;28;20122;-83
2023/05/05 05:25:51;;;;;;;12.25;5.82;;;;;;;;;;4956727;28;20132;-82
2023/05/05 05:28:20;;;;;;;17.83;6.15;;;;;;;;;;4940978;28;20052;-82
2023/05/05 05:30:54;;;;;;;15.10;5.93;;;;;;;;;;4970999;28;20086;-83
2023/05/05 05:33:21;;;;;;;13.38;5.47;;;;;;;;;;4967438;28;20095;-82
2023/05/05 05:35:49;;;;;;;10.02;5.28;;;;;;;;;;4947980;28;20531;-82
2023/05/05 05:38:18;;;;;;;18.17;4.90;;;;;;;;;;4959400;28;20507;-83
2023/05/05 05:40:46;;;;;;;9.60;4.78;;;;;;;;;;4946316;28;20036;-83
2023/05/05 05:43:13;;;;;;;10.88;4.72;;;;;;;;;;4935454;28;20134;-83
2023/05/05 05:45:39;;;;;;;12.13;4.32;;;;;;;;;;4948933;28;20112;-82
2023/05/05 05:48:06;;;;;;;12.38;4.30;;;;;;;;;;4939219;28;20051;-82
2023/05/05 05:50:34;;;;;;;11.15;4.07;;;;;;;;;;4959770;28;20522;-82
2023/05/05 05:53:01;;;;;;;8.65;3.75;;;;;;;;;;4952996;28;20447;-82
2023/05/05 05:55:28;;;;;;;15.52;4.30;;;;;;;;;;4952439;28;20122;-83
2023/05/05 05:58:07;;;;;;;14.13;4.32;;;;;;;;;;4951066;28;20627;-82
2023/05/05 06:00:33;;;;;;;13.07;4.47;;;;;;;;;;4951551;28;20588;-81
2023/05/05 06:03:05;;;;;;;15.45;4.07;;;;;;;;;;4956646;28;20047;-83
2023/05/05 06:05:35;;;;;;;7.35;3.97;;;;;;;;;;4936264;28;20135;-83
2023/05/05 06:08:02;;;;;;;10.95;3.70;;;;;;;;;;4921576;28;20055;-84
2023/05/05 06:10:30;;;;;;;12.73;3.70;;;;;;;;;;4958081;28;20058;-86
2023/05/05 06:13:04;;;;;;;10.65;3.70;;;;;;;;;;4941427;28;20048;-84
2023/05/05 06:15:32;;;;;;;13.27;4.05;;;;;;;;;;4957659;28;20119;-83
2023/05/05 06:18:01;;;;;;;11.88;3.78;;;;;;;;;;4941359;28;20044;-83
2023/05/05 06:20:28;;;;;;;13.02;3.67;;;;;;;;;;4930774;28;20039;-82
2023/05/05 06:22:55;;;;;;;13.18;3.55;;;;;;;;;;4932662;28;20085;-84
2023/05/05 06:25:22;;;;;;;12.38;3.47;;;;;;;;;;4958336;28;20043;-83
2023/05/05 06:27:50;;;;;;;10.35;3.63;;;;;;;;;;4939578;29;20048;-84
2023/05/05 06:30:16;;;;;;;9.20;3.70;;;;;;;;;;4965723;28;20065;-83
2023/05/05 06:32:43;;;;;;;11.30;4.22;;;;;;;;;;4922629;28;20079;-84
2023/05/05 06:35:09;;;;;;;14.32;3.60;;;;;;;;;;4919477;28;20592;-83
2023/05/05 06:37:36;;;;;;;9.25;3.45;;;;;;;;;;4934804;28;20043;-84
2023/05/05 06:40:03;;;;;;;8.60;3.42;;;;;;;;;;4932779;28;20078;-83
2023/05/05 06:42:31;;;;;;;10.70;3.33;;;;;;;;;;4916669;28;20414;-83
2023/05/05 06:44:58;;;;;;;11.00;3.80;;;;;;;;;;4932242;28;20118;-84
2023/05/05 06:47:24;;;;;;;17.45;4.10;;;;;;;;;;4938688;28;20047;-83
2023/05/05 06:49:51;;;;;;;11.88;4.03;;;;;;;;;;4936195;28;20134;-84
2023/05/05 06:52:18;;;;;;;10.48;3.85;;;;;;;;;;4952728;28;20056;-84
2023/05/05 06:54:44;;;;;;;36.47;13.85;;;;;;;;;;4921834;28;20071;-83
2023/05/05 06:57:11;;;;;;;14.90;5.22;;;;;;;;;;4942037;28;20400;-82
2023/05/05 06:59:37;;;;;;;14.93;4.25;;;;;;;;;;4945709;28;20035;-83
2023/05/05 07:02:04;;;;;;;10.55;3.63;;;;;;;;;;4964839;28;20051;-83
2023/05/05 07:04:31;;;;;;;20.92;6.85;;;;;;;;;;4948695;28;20035;-82
2023/05/05 07:06:57;;;;;;;37.05;13.45;;;;;;;;;;4947955;28;20051;-84
2023/05/05 07:09:27;;;;;;;29.90;12.45;;;;;;;;;;4927513;29;20047;-82
2023/05/05 07:11:56;;;;;;;29.98;10.55;;;;;;;;;;4964245;28;20102;-83
2023/05/05 07:14:23;;;;;;;10.77;4.18;;;;;;;;;;4962207;28;20051;-81
2023/05/05 07:16:50;;;;;;;7.13;2.40;;;;;;;;;;4959649;28;20075;-85
2023/05/05 07:19:16;;;;;;;8.55;2.70;;;;;;;;;;4959278;28;20103;-82
2023/05/05 07:21:43;;;;;;;7.05;2.80;;;;;;;;;;4957228;28;20490;-83
2023/05/05 07:24:10;;;;;;;6.55;2.35;;;;;;;;;;4952414;28;20054;-84
2023/05/05 07:26:36;;;;;;;9.18;3.55;;;;;;;;;;4956326;28;20039;-82
2023/05/05 07:29:04;;;;;;;6.18;2.22;;;;;;;;;;4939603;28;20101;-83
2023/05/05 07:31:31;;;;;;;16.27;4.35;;;;;;;;;;4940481;29;20573;-82
2023/05/05 07:33:58;;;;;;;5.13;2.55;;;;;;;;;;4960433;28;20043;-82
2023/05/05 07:36:26;;;;;;;7.30;3.05;;;;;;;;;;4960003;28;20111;-82
2023/05/05 07:38:53;;;;;;;4.63;2.20;;;;;;;;;;4960312;28;20043;-83
2023/05/05 07:41:20;;;;;;;5.55;2.20;;;;;;;;;;4958456;28;20039;-83
2023/05/05 07:43:46;;;;;;;7.50;1.92;;;;;;;;;;4945568;28;20488;-83
2023/05/05 07:46:13;;;;;;;8.48;2.00;;;;;;;;;;4962516;28;20138;-84
2023/05/05 07:48:40;;;;;;;5.32;2.38;;;;;;;;;;4977816;28;20419;-83
2023/05/05 07:51:07;;;;;;;6.22;2.00;;;;;;;;;;4960945;28;20130;-83
2023/05/05 07:53:34;;;;;;;4.57;1.75;;;;;;;;;;4943691;28;20063;-82
2023/05/05 07:56:00;;;;;;;4.88;1.70;;;;;;;;;;4961617;28;20057;-85
2023/05/05 07:58:27;;;;;;;3.85;1.63;;;;;;;;;;4958355;28;20133;-84
2023/05/05 08:00:53;;;;;;;4.68;1.90;;;;;;;;;;4961407;28;20044;-84
2023/05/05 08:03:46;;;;;;;13.27;2.30;;;;;;;;;;4954558;28;20044;-85
2023/05/05 08:06:22;;;;;;;5.53;1.92;;;;;;;;;;4944800;28;20040;-84
2023/05/05 08:08:49;;;;;;;6.55;1.92;;;;;;;;;;4942646;28;20130;-85
2023/05/05 08:11:16;;;;;;;6.13;2.15;;;;;;;;;;4928488;28;20044;-83
2023/05/05 08:13:43;;;;;;;3.42;1.85;;;;;;;;;;4929529;28;20272;-83
2023/05/05 08:16:10;;;;;;;5.28;1.70;;;;;;;;;;4956643;28;20091;-84
2023/05/05 08:18:39;;;;;;;4.68;1.70;;;;;;;;;;4954001;28;20047;-85
2023/05/05 08:21:07;;;;;;;7.90;1.98;;;;;;;;;;4923097;29;20039;-84
2023/05/05 08:23:36;;;;;;;5.32;2.05;;;;;;;;;;4936442;28;20126;-85
2023/05/05 08:26:10;;;;;;;7.00;1.77;;;;;;;;;;4948797;28;20388;-83
2023/05/05 08:28:37;;;;;;;8.80;2.08;;;;;;;;;;4959572;28;20122;-85
2023/05/05 08:31:04;;;;;;;5.55;1.90;;;;;;;;;;4953633;29;20044;-84
2023/05/05 08:33:34;;;;;;;6.65;2.00;;;;;;;;;;4950501;28;20103;-84
2023/05/05 08:36:00;;;;;;;6.40;2.30;;;;;;;;;;4947172;28;20048;-85
2023/05/05 08:38:27;;;;;;;3.05;1.80;;;;;;;;;;4937022;28;20509;-85
2023/05/05 08:40:53;;;;;;;7.18;1.75;;;;;;;;;;4938620;29;20426;-83
2023/05/05 08:43:22;;;;;;;3.80;1.80;;;;;;;;;;4937113;28;20599;-85
2023/05/05 08:45:52;;;;;;;3.80;1.67;;;;;;;;;;4944947;29;20055;-84
2023/05/05 08:48:19;;;;;;;5.90;1.70;;;;;;;;;;4941676;28;20075;-84
2023/05/05 08:50:47;;;;;;;7.22;1.88;;;;;;;;;;4944000;28;20067;-83
2023/05/05 08:53:15;;;;;;;10.55;1.95;;;;;;;;;;4947475;28;20053;-83
2023/05/05 08:55:53;;;;;;;13.32;1.90;;;;;;;;;;4953952;28;20039;-84
2023/05/05 08:58:23;;;;;;;5.88;2.33;;;;;;;;;;4935608;28;20074;-84
2023/05/05 09:00:52;;;;;;;7.60;1.70;;;;;;;;;;4931102;29;20099;-84
2023/05/05 09:03:19;;;;;;;5.00;1.90;;;;;;;;;;4946508;28;20233;-84
2023/05/05 09:05:49;;;;;;;7.47;1.70;;;;;;;;;;4934771;29;20036;-84
2023/05/05 09:08:16;;;;;;;4.85;1.70;;;;;;;;;;4933148;29;20050;-84
2023/05/05 09:10:43;;;;;;;5.28;2.22;;;;;;;;;;4922810;28;20047;-84
2023/05/05 09:13:10;;;;;;;3.90;1.73;;;;;;;;;;4936776;28;20077;-85
2023/05/05 09:15:37;;;;;;;7.57;1.90;;;;;;;;;;4949459;28;20051;-83
2023/05/05 09:18:07;;;;;;;5.00;1.90;;;;;;;;;;4931578;28;20462;-83
2023/05/05 09:20:35;;;;;;;4.88;1.88;;;;;;;;;;4948144;28;20632;-83
2023/05/05 09:23:09;;;;;;;8.60;1.80;;;;;;;;;;4938075;28;20058;-83
2023/05/05 09:25:36;;;;;;;7.47;1.80;;;;;;;;;;4960487;28;20047;-84
2023/05/05 09:28:07;;;;;;;4.68;1.90;;;;;;;;;;4937345;28;20769;-84
2023/05/05 09:30:34;;;;;;;4.65;2.00;;;;;;;;;;4954964;28;20520;-84
2023/05/05 09:33:01;;;;;;;9.45;1.80;;;;;;;;;;4936201;28;20047;-84
2023/05/05 09:35:27;;;;;;;7.60;1.70;;;;;;;;;;4952304;28;20078;-85
2023/05/05 09:37:54;;;;;;;6.65;1.73;;;;;;;;;;4935751;28;20078;-84
2023/05/05 09:40:21;;;;;;;3.92;1.52;;;;;;;;;;4968152;28;20047;-84
2023/05/05 09:42:47;;;;;;;4.63;1.60;;;;;;;;;;4954439;28;20043;-83
2023/05/05 09:45:18;;;;;;;4.10;1.55;;;;;;;;;;4973973;28;20046;-83
2023/05/05 09:47:45;;;;;;;7.50;1.60;;;;;;;;;;4958219;29;20047;-83
2023/05/05 09:50:17;;;;;;;10.73;1.95;;;;;;;;;;4968272;28;20048;-83
2023/05/05 09:52:58;;;;;;;2.97;1.67;;;;;;;;;;4952768;29;20054;-82
2023/05/05 09:55:25;;;;;;;8.50;1.70;;;;;;;;;;4943685;28;20051;-84
2023/05/05 09:57:51;;;;;;;5.57;1.58;;;;;;;;;;4960761;28;20075;-84
2023/05/05 10:00:18;;;;;;;3.95;1.73;;;;;;;;;;4944519;28;20043;-84
2023/05/05 10:02:45;;;;;;;7.05;1.60;;;;;;;;;;4957551;28;20047;-84
2023/05/05 10:05:16;;;;;;;3.67;1.70;;;;;;;;;;4972085;28;20047;-84
2023/05/05 10:07:45;;;;;;;3.80;1.50;;;;;;;;;;4976884;28;20050;-87
2023/05/05 10:10:13;;;;;;;6.40;1.92;;;;;;;;;;4960560;28;20043;-84
2023/05/05 10:12:40;;;;;;;6.15;1.67;;;;;;;;;;4959986;28;20410;-83
2023/05/05 10:15:08;;;;;;;2.88;1.45;;;;;;;;;;4958402;28;20047;-84
2023/05/05 10:17:36;;;;;;;5.03;1.77;;;;;;;;;;4963910;28;20059;-83
2023/05/05 10:20:03;;;;;;;8.52;1.73;;;;;;;;;;4967631;28;20043;-83
2023/05/05 10:22:33;;;;;;;9.23;1.73;;;;;;;;;;4958750;28;20122;-83
2023/05/05 10:25:08;;;;;;;5.43;1.60;;;;;;;;;;4957644;28;20058;-83
2023/05/05 10:27:53;;;;;;;3.75;1.63;;;;;;;;;;4942719;28;20055;-82
2023/05/05 10:30:27;;;;;;;3.50;1.73;;;;;;;;;;4964471;28;20039;-84
2023/05/05 10:33:16;;;;;;;7.10;1.90;;;;;;;;;;4934493;28;20051;-84
2023/05/05 10:35:59;;;;;;;3.05;1.77;;;;;;;;;;4950577;28;20420;-83
2023/05/05 10:38:28;;;;;;;3.85;2.13;;;;;;;;;;4952813;28;20058;-83
2023/05/05 10:40:55;;;;;;;6.10;1.65;;;;;;;;;;4952483;28;20055;-84
2023/05/05 10:43:22;;;;;;;8.85;2.00;;;;;;;;;;4954680;28;20149;-83
2023/05/05 10:45:48;;;;;;;7.18;1.92;;;;;;;;;;4968921;28;20127;-84
2023/05/05 10:48:21;;;;;;;2.80;1.75;;;;;;;;;;4954752;28;20429;-84
2023/05/05 10:50:51;;;;;;;7.38;2.03;;;;;;;;;;4954577;28;20051;-84
2023/05/05 10:53:27;;;;;;;5.57;2.00;;;;;;;;;;4938564;29;20077;-84
2023/05/05 10:55:53;;;;;;;3.13;1.60;;;;;;;;;;4955547;28;20215;-84
2023/05/05 10:58:31;;;;;;;4.50;1.80;;;;;;;;;;4953843;28;20039;-83
2023/05/05 11:00:57;;;;;;;3.60;1.70;;;;;;;;;;4954428;28;20481;-84
2023/05/05 11:03:24;;;;;;;5.10;1.80;;;;;;;;;;4956251;28;20059;-83
2023/05/05 11:06:03;;;;;;;4.00;1.75;;;;;;;;;;4955297;28;20090;-84
2023/05/05 11:08:31;;;;;;;4.60;1.80;;;;;;;;;;4939764;28;20108;-82
2023/05/05 11:10:58;;;;;;;6.30;1.90;;;;;;;;;;4931090;28;20047;-86
2023/05/05 11:13:25;;;;;;;3.30;1.80;;;;;;;;;;4959915;28;20078;-85
2023/05/05 11:15:55;;;;;;;6.28;1.90;;;;;;;;;;4963838;28;20047;-83
2023/05/05 11:18:36;;;;;;;2.85;1.70;;;;;;;;;;4950017;28;20074;-84
2023/05/05 11:21:06;;;;;;;6.75;1.75;;;;;;;;;;4952356;28;20055;-81
2023/05/05 11:23:33;;;;;;;7.20;2.03;;;;;;;;;;4961708;28;20047;-79
2023/05/05 11:25:59;;;;;;;6.85;1.70;;;;;;;;;;4946376;28;20051;-75
2023/05/05 11:28:29;;;;;;;2.90;1.67;;;;;;;;;;4950016;28;20043;-74
2023/05/05 11:30:57;;;;;;;3.80;1.85;;;;;;;;;;4930438;29;20079;-74
2023/05/05 11:33:29;;;;;;;4.82;1.92;;;;;;;;;;4946146;29;20095;-74
2023/05/05 11:35:56;;;;;;;7.80;1.77;;;;;;;;;;4932651;29;20055;-75
2023/05/05 11:38:35;;;;;;;4.93;1.90;;;;;;;;;;4945703;29;20040;-79
2023/05/05 11:41:05;;;;;;;4.35;1.95;;;;;;;;;;4944891;28;20067;-76
2023/05/05 11:43:32;;;;;;;4.35;1.55;;;;;;;;;;4928761;29;20050;-77
2023/05/05 11:46:11;;;;;;;3.60;1.70;;;;;;;;;;4923942;28;20055;-76
2023/05/05 11:48:47;;;;;;;2.88;1.70;;;;;;;;;;4948629;28;20518;-76
2023/05/05 11:51:17;;;;;;;5.68;1.90;;;;;;;;;;4949908;28;20069;-77
2023/05/05 11:53:47;;;;;;;5.93;1.90;;;;;;;;;;4949193;28;20075;-77
2023/05/05 11:56:21;;;;;;;7.20;2.00;;;;;;;;;;4933795;28;20055;-76
2023/05/05 11:58:48;;;;;;;4.88;1.80;;;;;;;;;;4949686;28;20130;-76
2023/05/05 12:01:15;;;;;;;4.43;1.77;;;;;;;;;;4945799;28;20044;-77
2023/05/05 12:03:44;;;;;;;4.13;1.83;;;;;;;;;;4947224;28;20551;-80
2023/05/05 12:06:11;;;;;;;6.30;1.88;;;;;;;;;;4928404;29;20098;-79
2023/05/05 12:08:38;;;;;;;5.13;2.00;;;;;;;;;;4935080;29;20044;-78
2023/05/05 12:11:09;;;;;;;7.03;2.90;;;;;;;;;;4939739;29;20051;-83
2023/05/05 12:13:36;;;;;;;6.70;1.92;;;;;;;;;;4958172;28;20111;-79
2023/05/05 12:16:13;;;;;;;7.95;1.92;;;;;;;;;;4944485;29;20233;-78
2023/05/05 12:18:40;;;;;;;3.75;1.90;;;;;;;;;;4940405;29;20116;-81
2023/05/05 12:21:19;;;;;;;4.05;1.63;;;;;;;;;;4920028;29;20066;-78
2023/05/05 12:23:45;;;;;;;4.57;1.80;;;;;;;;;;4957232;28;20043;-82
2023/05/05 12:26:25;;;;;;;5.05;2.10;;;;;;;;;;4949218;28;20258;-81
2023/05/05 12:28:52;;;;;;;4.25;1.70;;;;;;;;;;4957039;28;22473;-80
2023/05/05 12:31:19;;;;;;;3.92;1.90;;;;;;;;;;4958656;28;20055;-78
2023/05/05 12:33:47;;;;;;;5.88;1.65;;;;;;;;;;4958572;28;20067;-81
2023/05/05 12:36:14;;;;;;;9.40;2.10;;;;;;;;;;4960368;28;20058;-81
2023/05/05 12:38:40;;;;;;;6.18;1.95;;;;;;;;;;4955068;28;20055;-78
2023/05/05 12:41:07;;;;;;;6.47;1.60;;;;;;;;;;4942335;28;20109;-79
2023/05/05 12:43:34;;;;;;;6.22;2.00;;;;;;;;;;4947889;28;20036;-80
2023/05/05 12:46:00;;;;;;;8.20;1.77;;;;;;;;;;4949293;28;20102;-77
2023/05/05 12:48:27;;;;;;;6.00;1.65;;;;;;;;;;4948638;28;20043;-74
2023/05/05 12:50:54;;;;;;;7.75;2.13;;;;;;;;;;4945625;28;20055;-76
2023/05/05 12:53:22;;;;;;;4.25;1.83;;;;;;;;;;4958027;28;20768;-76
2023/05/05 12:55:50;;;;;;;6.22;1.80;;;;;;;;;;4950613;28;20044;-77
2023/05/05 12:58:16;;;;;;;8.20;1.85;;;;;;;;;;4932789;28;20047;-74
2023/05/05 13:00:43;;;;;;;3.53;1.77;;;;;;;;;;4943369;28;20079;-76
2023/05/05 13:03:18;;;;;;;10.90;1.88;;;;;;;;;;4924182;28;20977;-75
2023/05/05 13:05:46;;;;;;;4.43;1.60;;;;;;;;;;4942131;28;20048;-75
2023/05/05 13:08:12;;;;;;;3.90;1.80;;;;;;;;;;4942212;28;20123;-75
2023/05/05 13:10:54;;;;;;;3.25;1.75;;;;;;;;;;4931060;28;20039;-83
2023/05/05 13:13:21;;;;;;;7.57;1.77;;;;;;;;;;4940539;28;20090;-82
2023/05/05 13:15:47;;;;;;;5.95;1.85;;;;;;;;;;4941053;28;20103;-79
2023/05/05 13:18:14;;;;;;;5.45;1.73;;;;;;;;;;4942411;28;20057;-80
2023/05/05 13:20:40;;;;;;;6.15;1.80;;;;;;;;;;4948639;28;20075;-80
2023/05/05 13:23:07;;;;;;;3.88;2.20;;;;;;;;;;4950036;28;20054;-80
2023/05/05 13:25:34;;;;;;;6.05;1.90;;;;;;;;;;4929605;29;20143;-82
2023/05/05 13:28:01;;;;;;;10.10;1.70;;;;;;;;;;4935386;28;20401;-81
2023/05/05 13:30:27;;;;;;;5.13;1.73;;;;;;;;;;4952467;28;20051;-81
2023/05/05 13:32:54;;;;;;;8.68;1.90;;;;;;;;;;4938882;28;20039;-80
2023/05/05 13:35:20;;;;;;;7.90;2.22;;;;;;;;;;4937839;28;20063;-80
2023/05/05 13:37:47;;;;;;;4.85;1.83;;;;;;;;;;4953805;28;20130;-81
2023/05/05 13:40:13;;;;;;;9.55;2.28;;;;;;;;;;4950132;28;20428;-80
2023/05/05 13:42:40;;;;;;;7.45;2.10;;;;;;;;;;4937370;28;20054;-81
2023/05/05 13:45:07;;;;;;;7.25;1.88;;;;;;;;;;4951799;29;20508;-80
2023/05/05 13:47:34;;;;;;;6.22;2.17;;;;;;;;;;4929364;28;20106;-81
2023/05/05 13:50:00;;;;;;;7.43;2.10;;;;;;;;;;4942062;28;20054;-79
2023/05/05 13:52:27;;;;;;;11.43;2.28;;;;;;;;;;4956415;28;20044;-81
2023/05/05 13:54:57;;;;;;;7.03;2.10;;;;;;;;;;4952678;28;20044;-71
2023/05/05 13:57:24;;;;;;;7.45;2.42;;;;;;;;;;4936591;28;20047;-70
2023/05/05 13:59:50;;;;;;;4.82;1.80;;;;;;;;;;4944307;28;20154;-70
2023/05/05 14:02:17;;;;;;;5.13;2.10;;;;;;;;;;4927499;28;20115;-72
2023/05/05 14:04:43;;;;;;;8.80;2.17;;;;;;;;;;4938763;28;20079;-71
2023/05/05 14:07:10;;;;;;;7.32;2.15;;;;;;;;;;4923906;29;20043;-73
2023/05/05 14:09:37;;;;;;;9.73;2.50;;;;;;;;;;4937614;28;20508;-73
2023/05/05 14:12:05;;;;;;;6.35;2.20;;;;;;;;;;4936883;28;20047;-73
2023/05/05 14:14:31;;;;;;;10.55;2.47;;;;;;;;;;4945691;28;20083;-73
2023/05/05 14:16:58;;;;;;;5.57;2.53;;;;;;;;;;4944833;28;20143;-72
2023/05/05 14:19:24;;;;;;;5.03;2.22;;;;;;;;;;4941385;28;20039;-74
2023/05/05 14:21:51;;;;;;;5.30;2.10;;;;;;;;;;4948828;28;20061;-74
2023/05/05 14:24:17;;;;;;;6.22;2.30;;;;;;;;;;4943304;28;20051;-72
2023/05/05 14:26:44;;;;;;;10.48;2.20;;;;;;;;;;4951219;28;20055;-74
2023/05/05 14:29:11;;;;;;;6.05;2.40;;;;;;;;;;4947807;28;20066;-73
2023/05/05 14:31:37;;;;;;;7.68;2.50;;;;;;;;;;4944394;28;20055;-75
2023/05/05 14:34:04;;;;;;;5.03;2.13;;;;;;;;;;4961446;28;20047;-75
2023/05/05 14:36:30;;;;;;;4.75;2.15;;;;;;;;;;4940176;28;20531;-72
2023/05/05 14:38:57;;;;;;;6.57;2.10;;;;;;;;;;4929502;28;20051;-73
2023/05/05 14:41:23;;;;;;;4.88;2.30;;;;;;;;;;4957381;28;20062;-72
2023/05/05 14:43:50;;;;;;;5.93;2.50;;;;;;;;;;4929934;28;20052;-73
2023/05/05 14:46:17;;;;;;;10.80;2.03;;;;;;;;;;4942588;28;20055;-72
2023/05/05 14:48:45;;;;;;;5.95;2.13;;;;;;;;;;4946408;28;20522;-72